sensor_id;sensor_type;location;lat;lon;timestamp;temperature;humidity
12123;DHT22;6125;59.628;17.852;2023-10-13T00:00:40;6.90;99.90
12123;DHT22;6125;59.628;17.852;2023-10-13T00:03:07;6.90;99.90
12123;DHT22;6125;59.628;17.852;2023-10-13T00:05:41;6.90;99.90
12123;DHT22;6125;59.628;17.852;2023-10-13T00:08:12;6.80;99.90
12123;DHT22;6125;59.628;17.852;2023-10-13T00:10:41;6.80;99.90
12123;DHT22;6125;59.628;17.852;2023-10-13T00:13:16;6.80;99.90
12123;DHT22;6125;59.628;17.852;2023-10-13T00:15:46;6.80;99.90
12123;DHT22;6125;59.628;17.852;2023-10-13T00:18:23;6.70;99.90
12123;DHT22;6125;59.628;17.852;2023-10-13T00:20:52;6.80;99.90
12123;DHT22;6125;59.628;17.852;2023-10-13T00:23:23;6.80;99.90
12123;DHT22;6125;59.628;17.852;2023-10-13T00:25:54;6.80;99.90
12123;DHT22;6125;59.628;17.852;2023-10-13T00:28:28;6.80;99.90
12123;DHT22;6125;59.628;17.852;2023-10-13T00:31:09;6.80;99.90
12123;DHT22;6125;59.628;17.852;2023-10-13T00:33:40;6.80;99.90
12123;DHT22;6125;59.628;17.852;2023-10-13T00:36:13;6.80;99.90
12123;DHT22;6125;59.628;17.852;2023-10-13T00:38:47;6.70;99.90
12123;DHT22;6125;59.628;17.852;2023-10-13T00:41:18;6.70;99.90
12123;DHT22;6125;59.628;17.852;2023-10-13T00:44:04;6.70;99.90
12123;DHT22;6125;59.628;17.852;2023-10-13T00:46:35;6.70;99.90
12123;DHT22;6125;59.628;17.852;2023-10-13T00:49:05;6.70;99.90
12123;DHT22;6125;59.628;17.852;2023-10-13T00:51:35;6.70;99.90
12123;DHT22;6125;59.628;17.852;2023-10-13T00:54:09;6.70;99.90
12123;DHT22;6125;59.628;17.852;2023-10-13T00:56:38;6.60;99.90
12123;DHT22;6125;59.628;17.852;2023-10-13T00:59:13;6.70;99.90
12123;DHT22;6125;59.628;17.852;2023-10-13T01:01:40;6.70;99.90
12123;DHT22;6125;59.628;17.852;2023-10-13T01:04:11;6.70;99.90
12123;DHT22;6125;59.628;17.852;2023-10-13T01:06:41;6.70;99.90
12123;DHT22;6125;59.628;17.852;2023-10-13T01:09:11;6.70;99.90
12123;DHT22;6125;59.628;17.852;2023-10-13T01:11:40;6.70;99.90
12123;DHT22;6125;59.628;17.852;2023-10-13T01:14:10;6.70;99.90
12123;DHT22;6125;59.628;17.852;2023-10-13T01:16:37;6.70;99.90
12123;DHT22;6125;59.628;17.852;2023-10-13T01:19:09;6.70;99.90
12123;DHT22;6125;59.628;17.852;2023-10-13T01:21:38;6.70;99.90
12123;DHT22;6125;59.628;17.852;2023-10-13T01:24:08;6.60;99.90
12123;DHT22;6125;59.628;17.852;2023-10-13T01:26:41;6.60;99.90
12123;DHT22;6125;59.628;17.852;2023-10-13T01:29:08;6.60;99.90
12123;DHT22;6125;59.628;17.852;2023-10-13T01:31:40;6.60;99.90
12123;DHT22;6125;59.628;17.852;2023-10-13T01:34:12;6.50;99.90
12123;DHT22;6125;59.628;17.852;2023-10-13T01:36:42;6.50;99.90
12123;DHT22;6125;59.628;17.852;2023-10-13T01:39:11;6.50;99.90
12123;DHT22;6125;59.628;17.852;2023-10-13T01:41:44;6.50;99.90
12123;DHT22;6125;59.628;17.852;2023-10-13T01:44:11;6.50;99.90
12123;DHT22;6125;59.628;17.852;2023-10-13T01:46:40;6.50;99.90
12123;DHT22;6125;59.628;17.852;2023-10-13T01:49:08;6.50;99.90
12123;DHT22;6125;59.628;17.852;2023-10-13T01:51:35;6.40;99.90
12123;DHT22;6125;59.628;17.852;2023-10-13T01:54:01;6.40;99.90
12123;DHT22;6125;59.628;17.852;2023-10-13T01:56:39;6.40;99.90
12123;DHT22;6125;59.628;17.852;2023-10-13T01:59:09;6.40;99.90
12123;DHT22;6125;59.628;17.852;2023-10-13T02:01:36;6.40;99.90
12123;DHT22;6125;59.628;17.852;2023-10-13T02:04:03;6.40;99.90
12123;DHT22;6125;59.628;17.852;2023-10-13T02:06:33;6.40;99.90
12123;DHT22;6125;59.628;17.852;2023-10-13T02:09:00;6.30;99.90
12123;DHT22;6125;59.628;17.852;2023-10-13T02:11:39;6.40;99.90
12123;DHT22;6125;59.628;17.852;2023-10-13T02:14:06;6.40;99.90
12123;DHT22;6125;59.628;17.852;2023-10-13T02:16:33;6.40;99.90
12123;DHT22;6125;59.628;17.852;2023-10-13T02:19:01;6.40;99.90
12123;DHT22;6125;59.628;17.852;2023-10-13T02:21:36;6.30;99.90
12123;DHT22;6125;59.628;17.852;2023-10-13T02:24:05;6.30;99.90
12123;DHT22;6125;59.628;17.852;2023-10-13T02:26:41;6.30;99.90
12123;DHT22;6125;59.628;17.852;2023-10-13T02:29:07;6.30;99.90
12123;DHT22;6125;59.628;17.852;2023-10-13T02:31:39;6.30;99.90
12123;DHT22;6125;59.628;17.852;2023-10-13T02:34:06;6.20;99.90
12123;DHT22;6125;59.628;17.852;2023-10-13T02:36:36;6.30;99.90
12123;DHT22;6125;59.628;17.852;2023-10-13T02:39:04;6.20;99.90
12123;DHT22;6125;59.628;17.852;2023-10-13T02:41:45;6.20;99.90
12123;DHT22;6125;59.628;17.852;2023-10-13T02:44:14;6.20;99.90
12123;DHT22;6125;59.628;17.852;2023-10-13T02:46:53;6.20;99.90
12123;DHT22;6125;59.628;17.852;2023-10-13T02:49:21;6.20;99.90
12123;DHT22;6125;59.628;17.852;2023-10-13T02:51:47;6.10;99.90
12123;DHT22;6125;59.628;17.852;2023-10-13T02:54:19;6.10;99.90
12123;DHT22;6125;59.628;17.852;2023-10-13T02:56:47;6.00;99.90
12123;DHT22;6125;59.628;17.852;2023-10-13T02:59:23;6.00;99.90
12123;DHT22;6125;59.628;17.852;2023-10-13T03:02:01;5.90;99.90
12123;DHT22;6125;59.628;17.852;2023-10-13T03:04:33;5.90;99.90
12123;DHT22;6125;59.628;17.852;2023-10-13T03:06:59;5.90;99.90
12123;DHT22;6125;59.628;17.852;2023-10-13T03:09:28;5.90;99.90
12123;DHT22;6125;59.628;17.852;2023-10-13T03:11:56;5.90;99.90
12123;DHT22;6125;59.628;17.852;2023-10-13T03:14:25;5.90;99.90
12123;DHT22;6125;59.628;17.852;2023-10-13T03:16:55;5.90;99.90
12123;DHT22;6125;59.628;17.852;2023-10-13T03:19:28;5.90;99.90
12123;DHT22;6125;59.628;17.852;2023-10-13T03:21:58;5.90;99.90
12123;DHT22;6125;59.628;17.852;2023-10-13T03:24:33;5.90;99.90
12123;DHT22;6125;59.628;17.852;2023-10-13T03:27:02;6.00;99.90
12123;DHT22;6125;59.628;17.852;2023-10-13T03:29:35;5.90;99.90
12123;DHT22;6125;59.628;17.852;2023-10-13T03:32:10;5.90;99.90
12123;DHT22;6125;59.628;17.852;2023-10-13T03:34:41;5.90;99.90
12123;DHT22;6125;59.628;17.852;2023-10-13T03:37:16;5.90;99.90
12123;DHT22;6125;59.628;17.852;2023-10-13T03:40:01;5.80;99.90
12123;DHT22;6125;59.628;17.852;2023-10-13T03:42:35;5.80;99.90
12123;DHT22;6125;59.628;17.852;2023-10-13T03:45:06;5.70;99.90
12123;DHT22;6125;59.628;17.852;2023-10-13T03:47:37;5.70;99.90
12123;DHT22;6125;59.628;17.852;2023-10-13T03:50:06;5.70;99.90
12123;DHT22;6125;59.628;17.852;2023-10-13T03:52:42;5.60;99.90
12123;DHT22;6125;59.628;17.852;2023-10-13T03:55:10;5.50;99.90
12123;DHT22;6125;59.628;17.852;2023-10-13T03:57:48;5.40;99.90
12123;DHT22;6125;59.628;17.852;2023-10-13T04:00:19;5.30;99.90
12123;DHT22;6125;59.628;17.852;2023-10-13T04:02:52;5.30;99.90
12123;DHT22;6125;59.628;17.852;2023-10-13T04:05:33;5.20;99.90
12123;DHT22;6125;59.628;17.852;2023-10-13T04:08:28;5.10;99.90
12123;DHT22;6125;59.628;17.852;2023-10-13T04:11:34;5.10;99.90
12123;DHT22;6125;59.628;17.852;2023-10-13T04:14:43;5.00;99.90
12123;DHT22;6125;59.628;17.852;2023-10-13T04:17:40;4.90;99.90
12123;DHT22;6125;59.628;17.852;2023-10-13T04:20:11;4.80;99.90
12123;DHT22;6125;59.628;17.852;2023-10-13T04:22:53;4.70;99.90
12123;DHT22;6125;59.628;17.852;2023-10-13T04:25:41;4.70;99.90
12123;DHT22;6125;59.628;17.852;2023-10-13T04:28:31;4.60;99.90
12123;DHT22;6125;59.628;17.852;2023-10-13T04:31:02;4.50;99.90
12123;DHT22;6125;59.628;17.852;2023-10-13T04:33:38;4.50;99.90
12123;DHT22;6125;59.628;17.852;2023-10-13T04:36:17;4.40;99.90
12123;DHT22;6125;59.628;17.852;2023-10-13T04:39:02;4.40;99.90
12123;DHT22;6125;59.628;17.852;2023-10-13T04:41:36;4.40;99.90
12123;DHT22;6125;59.628;17.852;2023-10-13T04:44:06;4.30;99.90
12123;DHT22;6125;59.628;17.852;2023-10-13T04:46:48;4.30;99.90
12123;DHT22;6125;59.628;17.852;2023-10-13T04:49:38;4.30;99.90
12123;DHT22;6125;59.628;17.852;2023-10-13T04:52:17;4.20;99.90
12123;DHT22;6125;59.628;17.852;2023-10-13T04:55:03;4.20;99.90
12123;DHT22;6125;59.628;17.852;2023-10-13T04:57:59;4.20;99.90
12123;DHT22;6125;59.628;17.852;2023-10-13T05:00:37;4.20;99.90
12123;DHT22;6125;59.628;17.852;2023-10-13T05:03:25;4.10;99.90
12123;DHT22;6125;59.628;17.852;2023-10-13T05:06:20;4.10;99.90
12123;DHT22;6125;59.628;17.852;2023-10-13T05:09:05;4.10;99.90
12123;DHT22;6125;59.628;17.852;2023-10-13T05:11:50;4.10;99.90
12123;DHT22;6125;59.628;17.852;2023-10-13T05:14:34;4.20;99.90
12123;DHT22;6125;59.628;17.852;2023-10-13T05:17:19;4.20;99.90
12123;DHT22;6125;59.628;17.852;2023-10-13T05:20:06;4.30;99.90
12123;DHT22;6125;59.628;17.852;2023-10-13T05:22:51;4.40;99.90
12123;DHT22;6125;59.628;17.852;2023-10-13T05:25:36;4.50;99.90
12123;DHT22;6125;59.628;17.852;2023-10-13T05:28:20;4.60;99.90
12123;DHT22;6125;59.628;17.852;2023-10-13T05:31:06;4.60;99.90
12123;DHT22;6125;59.628;17.852;2023-10-13T05:33:56;4.70;99.90
12123;DHT22;6125;59.628;17.852;2023-10-13T05:36:42;4.80;99.90
12123;DHT22;6125;59.628;17.852;2023-10-13T05:39:27;4.80;99.90
12123;DHT22;6125;59.628;17.852;2023-10-13T05:42:11;4.90;99.90
12123;DHT22;6125;59.628;17.852;2023-10-13T05:44:56;4.90;99.90
12123;DHT22;6125;59.628;17.852;2023-10-13T05:47:43;5.00;99.90
12123;DHT22;6125;59.628;17.852;2023-10-13T05:50:13;5.10;99.90
12123;DHT22;6125;59.628;17.852;2023-10-13T05:52:56;5.20;99.90
12123;DHT22;6125;59.628;17.852;2023-10-13T05:55:43;5.20;99.90
12123;DHT22;6125;59.628;17.852;2023-10-13T05:58:31;5.30;99.90
12123;DHT22;6125;59.628;17.852;2023-10-13T06:01:15;5.40;99.90
12123;DHT22;6125;59.628;17.852;2023-10-13T06:04:15;5.50;99.90
12123;DHT22;6125;59.628;17.852;2023-10-13T06:07:00;5.50;99.90
12123;DHT22;6125;59.628;17.852;2023-10-13T06:09:46;5.60;99.90
12123;DHT22;6125;59.628;17.852;2023-10-13T06:12:32;5.60;99.90
12123;DHT22;6125;59.628;17.852;2023-10-13T06:15:16;5.60;99.90
12123;DHT22;6125;59.628;17.852;2023-10-13T06:18:01;5.70;99.90
12123;DHT22;6125;59.628;17.852;2023-10-13T06:20:45;5.80;99.90
12123;DHT22;6125;59.628;17.852;2023-10-13T06:23:30;5.80;99.90
12123;DHT22;6125;59.628;17.852;2023-10-13T06:26:17;5.90;99.90
12123;DHT22;6125;59.628;17.852;2023-10-13T06:29:02;6.00;99.90
12123;DHT22;6125;59.628;17.852;2023-10-13T06:31:34;6.00;99.90
12123;DHT22;6125;59.628;17.852;2023-10-13T06:34:02;6.10;99.90
12123;DHT22;6125;59.628;17.852;2023-10-13T06:36:29;6.10;99.90
12123;DHT22;6125;59.628;17.852;2023-10-13T06:38:58;6.10;99.90
12123;DHT22;6125;59.628;17.852;2023-10-13T06:41:41;6.10;99.90
12123;DHT22;6125;59.628;17.852;2023-10-13T06:44:10;6.20;99.90
12123;DHT22;6125;59.628;17.852;2023-10-13T06:46:41;6.20;99.90
12123;DHT22;6125;59.628;17.852;2023-10-13T06:49:09;6.30;99.90
12123;DHT22;6125;59.628;17.852;2023-10-13T06:51:38;6.30;99.90
12123;DHT22;6125;59.628;17.852;2023-10-13T06:54:06;6.30;99.90
12123;DHT22;6125;59.628;17.852;2023-10-13T06:56:47;6.40;99.90
12123;DHT22;6125;59.628;17.852;2023-10-13T06:59:18;6.50;99.90
12123;DHT22;6125;59.628;17.852;2023-10-13T07:01:45;6.60;99.90
12123;DHT22;6125;59.628;17.852;2023-10-13T07:04:13;6.60;99.90
12123;DHT22;6125;59.628;17.852;2023-10-13T07:06:43;6.70;99.90
12123;DHT22;6125;59.628;17.852;2023-10-13T07:09:14;6.80;99.90
12123;DHT22;6125;59.628;17.852;2023-10-13T07:12:07;6.90;99.90
12123;DHT22;6125;59.628;17.852;2023-10-13T07:14:46;7.00;99.90
12123;DHT22;6125;59.628;17.852;2023-10-13T07:17:19;7.10;99.90
12123;DHT22;6125;59.628;17.852;2023-10-13T07:19:51;7.20;99.90
12123;DHT22;6125;59.628;17.852;2023-10-13T07:22:31;7.30;99.90
12123;DHT22;6125;59.628;17.852;2023-10-13T07:25:06;7.40;99.90
12123;DHT22;6125;59.628;17.852;2023-10-13T07:27:35;7.40;99.90
12123;DHT22;6125;59.628;17.852;2023-10-13T07:30:03;7.60;99.90
12123;DHT22;6125;59.628;17.852;2023-10-13T07:32:39;7.60;99.90
12123;DHT22;6125;59.628;17.852;2023-10-13T07:35:12;7.70;99.90
12123;DHT22;6125;59.628;17.852;2023-10-13T07:37:42;7.70;99.90
12123;DHT22;6125;59.628;17.852;2023-10-13T07:40:10;7.80;99.90
12123;DHT22;6125;59.628;17.852;2023-10-13T07:43:06;7.80;99.90
12123;DHT22;6125;59.628;17.852;2023-10-13T07:45:45;7.90;99.90
12123;DHT22;6125;59.628;17.852;2023-10-13T07:48:16;8.00;99.90
12123;DHT22;6125;59.628;17.852;2023-10-13T07:50:48;8.00;99.90
12123;DHT22;6125;59.628;17.852;2023-10-13T07:53:27;8.10;99.90
12123;DHT22;6125;59.628;17.852;2023-10-13T07:56:00;8.20;99.90
12123;DHT22;6125;59.628;17.852;2023-10-13T07:58:33;8.30;99.90
12123;DHT22;6125;59.628;17.852;2023-10-13T08:01:00;8.30;99.90
12123;DHT22;6125;59.628;17.852;2023-10-13T08:03:35;8.40;99.90
12123;DHT22;6125;59.628;17.852;2023-10-13T08:06:09;8.40;99.90
12123;DHT22;6125;59.628;17.852;2023-10-13T08:08:48;8.50;99.90
12123;DHT22;6125;59.628;17.852;2023-10-13T08:11:21;8.60;99.90
12123;DHT22;6125;59.628;17.852;2023-10-13T08:14:02;8.70;99.90
12123;DHT22;6125;59.628;17.852;2023-10-13T08:16:49;8.80;99.90
12123;DHT22;6125;59.628;17.852;2023-10-13T08:19:24;8.90;99.90
12123;DHT22;6125;59.628;17.852;2023-10-13T08:21:55;8.90;99.90
12123;DHT22;6125;59.628;17.852;2023-10-13T08:24:48;8.90;99.90
12123;DHT22;6125;59.628;17.852;2023-10-13T08:27:35;9.00;99.90
12123;DHT22;6125;59.628;17.852;2023-10-13T08:30:16;9.00;99.90
12123;DHT22;6125;59.628;17.852;2023-10-13T08:32:52;9.00;99.90
12123;DHT22;6125;59.628;17.852;2023-10-13T08:35:23;9.10;99.90
12123;DHT22;6125;59.628;17.852;2023-10-13T08:38:00;9.10;99.90
12123;DHT22;6125;59.628;17.852;2023-10-13T08:40:31;9.10;99.90
12123;DHT22;6125;59.628;17.852;2023-10-13T08:43:45;9.10;99.90
12123;DHT22;6125;59.628;17.852;2023-10-13T08:46:21;9.20;99.90
12123;DHT22;6125;59.628;17.852;2023-10-13T08:49:12;9.20;99.90
12123;DHT22;6125;59.628;17.852;2023-10-13T08:51:44;9.30;99.90
12123;DHT22;6125;59.628;17.852;2023-10-13T08:54:15;9.30;99.90
12123;DHT22;6125;59.628;17.852;2023-10-13T08:57:00;9.40;99.90
12123;DHT22;6125;59.628;17.852;2023-10-13T08:59:45;9.60;99.90
12123;DHT22;6125;59.628;17.852;2023-10-13T09:02:23;9.60;99.90
12123;DHT22;6125;59.628;17.852;2023-10-13T09:05:13;9.70;99.90
12123;DHT22;6125;59.628;17.852;2023-10-13T09:07:55;9.80;99.90
12123;DHT22;6125;59.628;17.852;2023-10-13T09:10:34;9.80;99.90
12123;DHT22;6125;59.628;17.852;2023-10-13T09:13:10;9.80;99.90
12123;DHT22;6125;59.628;17.852;2023-10-13T09:15:44;9.90;99.90
12123;DHT22;6125;59.628;17.852;2023-10-13T09:18:37;10.00;99.90
12123;DHT22;6125;59.628;17.852;2023-10-13T09:21:15;10.10;99.90
12123;DHT22;6125;59.628;17.852;2023-10-13T09:24:01;10.10;99.90
12123;DHT22;6125;59.628;17.852;2023-10-13T09:27:14;10.20;99.90
12123;DHT22;6125;59.628;17.852;2023-10-13T09:29:57;10.30;99.90
12123;DHT22;6125;59.628;17.852;2023-10-13T09:32:25;10.30;99.90
12123;DHT22;6125;59.628;17.852;2023-10-13T09:34:53;10.40;99.90
12123;DHT22;6125;59.628;17.852;2023-10-13T09:37:25;10.40;99.90
12123;DHT22;6125;59.628;17.852;2023-10-13T09:39:53;10.50;99.90
12123;DHT22;6125;59.628;17.852;2023-10-13T09:42:34;10.60;99.90
12123;DHT22;6125;59.628;17.852;2023-10-13T09:45:05;10.70;99.90
12123;DHT22;6125;59.628;17.852;2023-10-13T09:47:38;10.80;99.90
12123;DHT22;6125;59.628;17.852;2023-10-13T09:50:08;10.80;99.90
12123;DHT22;6125;59.628;17.852;2023-10-13T09:52:51;10.90;99.90
12123;DHT22;6125;59.628;17.852;2023-10-13T09:55:26;10.90;99.90
12123;DHT22;6125;59.628;17.852;2023-10-13T09:58:00;10.80;99.90
12123;DHT22;6125;59.628;17.852;2023-10-13T10:00:43;10.90;99.90
12123;DHT22;6125;59.628;17.852;2023-10-13T10:03:13;10.90;99.90
12123;DHT22;6125;59.628;17.852;2023-10-13T10:05:58;11.00;99.90
12123;DHT22;6125;59.628;17.852;2023-10-13T10:08:41;10.90;99.90
12123;DHT22;6125;59.628;17.852;2023-10-13T10:11:53;10.90;99.90
12123;DHT22;6125;59.628;17.852;2023-10-13T10:14:36;11.00;99.90
12123;DHT22;6125;59.628;17.852;2023-10-13T10:17:08;11.10;99.90
12123;DHT22;6125;59.628;17.852;2023-10-13T10:19:49;11.20;99.90
12123;DHT22;6125;59.628;17.852;2023-10-13T10:22:31;11.30;99.90
12123;DHT22;6125;59.628;17.852;2023-10-13T10:24:59;11.50;99.90
12123;DHT22;6125;59.628;17.852;2023-10-13T10:27:30;11.80;99.90
12123;DHT22;6125;59.628;17.852;2023-10-13T10:30:00;11.90;99.90
12123;DHT22;6125;59.628;17.852;2023-10-13T10:32:33;12.10;99.90
12123;DHT22;6125;59.628;17.852;2023-10-13T10:35:06;12.20;99.90
12123;DHT22;6125;59.628;17.852;2023-10-13T10:37:41;12.30;99.90
12123;DHT22;6125;59.628;17.852;2023-10-13T10:40:16;12.30;99.90
12123;DHT22;6125;59.628;17.852;2023-10-13T10:43:00;12.30;99.90
12123;DHT22;6125;59.628;17.852;2023-10-13T10:45:35;12.30;99.90
12123;DHT22;6125;59.628;17.852;2023-10-13T10:48:13;12.30;99.90
12123;DHT22;6125;59.628;17.852;2023-10-13T10:50:56;12.40;99.90
12123;DHT22;6125;59.628;17.852;2023-10-13T10:53:25;12.50;99.90
12123;DHT22;6125;59.628;17.852;2023-10-13T10:56:04;12.50;99.90
12123;DHT22;6125;59.628;17.852;2023-10-13T10:58:34;12.50;99.90
12123;DHT22;6125;59.628;17.852;2023-10-13T11:01:11;12.50;99.90
12123;DHT22;6125;59.628;17.852;2023-10-13T11:03:53;12.60;99.90
12123;DHT22;6125;59.628;17.852;2023-10-13T11:06:23;12.70;99.90
12123;DHT22;6125;59.628;17.852;2023-10-13T11:09:06;12.80;99.90
12123;DHT22;6125;59.628;17.852;2023-10-13T11:11:45;12.80;99.90
12123;DHT22;6125;59.628;17.852;2023-10-13T11:14:23;12.80;99.90
12123;DHT22;6125;59.628;17.852;2023-10-13T11:16:52;12.70;99.90
12123;DHT22;6125;59.628;17.852;2023-10-13T11:19:21;12.70;99.90
12123;DHT22;6125;59.628;17.852;2023-10-13T11:21:55;12.70;99.90
12123;DHT22;6125;59.628;17.852;2023-10-13T11:24:25;12.70;99.90
12123;DHT22;6125;59.628;17.852;2023-10-13T11:26:53;12.70;99.90
12123;DHT22;6125;59.628;17.852;2023-10-13T11:29:31;12.70;99.90
12123;DHT22;6125;59.628;17.852;2023-10-13T11:32:06;12.70;99.90
12123;DHT22;6125;59.628;17.852;2023-10-13T11:34:34;12.70;99.90
12123;DHT22;6125;59.628;17.852;2023-10-13T11:37:06;12.70;99.90
12123;DHT22;6125;59.628;17.852;2023-10-13T11:39:48;12.70;99.90
12123;DHT22;6125;59.628;17.852;2023-10-13T11:42:17;12.80;99.90
12123;DHT22;6125;59.628;17.852;2023-10-13T11:44:55;12.80;99.90
12123;DHT22;6125;59.628;17.852;2023-10-13T11:47:43;12.80;99.90
12123;DHT22;6125;59.628;17.852;2023-10-13T11:50:24;12.80;99.90
12123;DHT22;6125;59.628;17.852;2023-10-13T11:52:58;12.80;99.90
12123;DHT22;6125;59.628;17.852;2023-10-13T11:55:25;12.80;99.90
12123;DHT22;6125;59.628;17.852;2023-10-13T11:57:59;12.90;99.90
12123;DHT22;6125;59.628;17.852;2023-10-13T12:00:27;12.80;99.90
12123;DHT22;6125;59.628;17.852;2023-10-13T12:03:16;12.80;99.90
12123;DHT22;6125;59.628;17.852;2023-10-13T12:06:02;12.70;99.90
12123;DHT22;6125;59.628;17.852;2023-10-13T12:08:45;12.70;99.90
12123;DHT22;6125;59.628;17.852;2023-10-13T12:11:17;12.70;99.90
12123;DHT22;6125;59.628;17.852;2023-10-13T12:14:05;12.70;99.90
12123;DHT22;6125;59.628;17.852;2023-10-13T12:16:42;12.70;99.90
12123;DHT22;6125;59.628;17.852;2023-10-13T12:19:16;12.80;99.90
12123;DHT22;6125;59.628;17.852;2023-10-13T12:21:53;12.90;99.90
12123;DHT22;6125;59.628;17.852;2023-10-13T12:24:21;12.90;99.90
12123;DHT22;6125;59.628;17.852;2023-10-13T12:27:06;13.00;99.90
12123;DHT22;6125;59.628;17.852;2023-10-13T12:29:46;13.10;99.90
12123;DHT22;6125;59.628;17.852;2023-10-13T12:32:13;13.20;99.90
12123;DHT22;6125;59.628;17.852;2023-10-13T12:34:49;13.40;99.90
12123;DHT22;6125;59.628;17.852;2023-10-13T12:37:43;13.50;99.90
12123;DHT22;6125;59.628;17.852;2023-10-13T12:40:30;13.50;99.90
12123;DHT22;6125;59.628;17.852;2023-10-13T12:43:15;13.50;99.90
12123;DHT22;6125;59.628;17.852;2023-10-13T12:46:01;13.50;99.90
12123;DHT22;6125;59.628;17.852;2023-10-13T12:48:47;13.50;99.90
12123;DHT22;6125;59.628;17.852;2023-10-13T12:51:32;13.40;99.90
12123;DHT22;6125;59.628;17.852;2023-10-13T12:54:17;13.30;99.90
12123;DHT22;6125;59.628;17.852;2023-10-13T12:56:49;13.20;99.90
12123;DHT22;6125;59.628;17.852;2023-10-13T12:59:22;13.10;99.90
12123;DHT22;6125;59.628;17.852;2023-10-13T13:01:52;13.00;99.90
12123;DHT22;6125;59.628;17.852;2023-10-13T13:04:20;12.90;99.90
12123;DHT22;6125;59.628;17.852;2023-10-13T13:07:01;12.90;99.90
12123;DHT22;6125;59.628;17.852;2023-10-13T13:09:30;12.80;99.90
12123;DHT22;6125;59.628;17.852;2023-10-13T13:11:58;12.70;99.90
12123;DHT22;6125;59.628;17.852;2023-10-13T13:14:27;12.60;99.90
12123;DHT22;6125;59.628;17.852;2023-10-13T13:16:55;12.70;99.90
12123;DHT22;6125;59.628;17.852;2023-10-13T13:19:32;12.80;99.90
12123;DHT22;6125;59.628;17.852;2023-10-13T13:22:03;12.80;99.90
12123;DHT22;6125;59.628;17.852;2023-10-13T13:24:32;12.80;99.90
12123;DHT22;6125;59.628;17.852;2023-10-13T13:27:00;12.70;99.90
12123;DHT22;6125;59.628;17.852;2023-10-13T13:29:33;12.70;99.90
12123;DHT22;6125;59.628;17.852;2023-10-13T13:32:03;12.60;99.90
12123;DHT22;6125;59.628;17.852;2023-10-13T13:34:43;12.70;99.90
12123;DHT22;6125;59.628;17.852;2023-10-13T13:37:20;12.60;99.90
12123;DHT22;6125;59.628;17.852;2023-10-13T13:39:47;12.50;99.90
12123;DHT22;6125;59.628;17.852;2023-10-13T13:42:18;12.50;99.90
12123;DHT22;6125;59.628;17.852;2023-10-13T13:44:48;12.40;99.90
12123;DHT22;6125;59.628;17.852;2023-10-13T13:47:15;12.30;99.90
12123;DHT22;6125;59.628;17.852;2023-10-13T13:49:43;12.20;99.90
12123;DHT22;6125;59.628;17.852;2023-10-13T13:52:17;12.20;99.90
12123;DHT22;6125;59.628;17.852;2023-10-13T13:54:49;12.10;99.90
12123;DHT22;6125;59.628;17.852;2023-10-13T13:57:16;12.10;99.90
12123;DHT22;6125;59.628;17.852;2023-10-13T13:59:43;12.00;99.90
12123;DHT22;6125;59.628;17.852;2023-10-13T14:02:12;11.90;99.90
12123;DHT22;6125;59.628;17.852;2023-10-13T14:04:46;11.80;99.90
12123;DHT22;6125;59.628;17.852;2023-10-13T14:07:17;11.70;99.90
12123;DHT22;6125;59.628;17.852;2023-10-13T14:09:45;11.70;99.90
12123;DHT22;6125;59.628;17.852;2023-10-13T14:12:21;11.60;99.90
12123;DHT22;6125;59.628;17.852;2023-10-13T14:15:01;11.60;99.90
12123;DHT22;6125;59.628;17.852;2023-10-13T14:17:30;11.50;99.90
12123;DHT22;6125;59.628;17.852;2023-10-13T14:20:01;11.50;99.90
12123;DHT22;6125;59.628;17.852;2023-10-13T14:22:34;11.40;99.90
12123;DHT22;6125;59.628;17.852;2023-10-13T14:25:03;11.30;99.90
12123;DHT22;6125;59.628;17.852;2023-10-13T14:27:36;11.20;99.90
12123;DHT22;6125;59.628;17.852;2023-10-13T14:30:04;11.20;99.90
12123;DHT22;6125;59.628;17.852;2023-10-13T14:32:32;11.20;99.90
12123;DHT22;6125;59.628;17.852;2023-10-13T14:35:07;11.20;99.90
12123;DHT22;6125;59.628;17.852;2023-10-13T14:37:41;11.10;99.90
12123;DHT22;6125;59.628;17.852;2023-10-13T14:40:11;11.10;99.90
12123;DHT22;6125;59.628;17.852;2023-10-13T14:42:43;11.10;99.90
12123;DHT22;6125;59.628;17.852;2023-10-13T14:45:16;11.00;99.90
12123;DHT22;6125;59.628;17.852;2023-10-13T14:47:43;11.00;99.90
12123;DHT22;6125;59.628;17.852;2023-10-13T14:50:14;11.00;99.90
12123;DHT22;6125;59.628;17.852;2023-10-13T14:52:46;10.90;99.90
12123;DHT22;6125;59.628;17.852;2023-10-13T14:55:15;11.00;99.90
12123;DHT22;6125;59.628;17.852;2023-10-13T14:58:05;10.90;99.90
12123;DHT22;6125;59.628;17.852;2023-10-13T15:00:34;10.90;99.90
12123;DHT22;6125;59.628;17.852;2023-10-13T15:03:01;10.80;99.90
12123;DHT22;6125;59.628;17.852;2023-10-13T15:05:32;10.80;99.90
12123;DHT22;6125;59.628;17.852;2023-10-13T15:08:02;10.80;99.90
12123;DHT22;6125;59.628;17.852;2023-10-13T15:10:32;10.80;99.90
12123;DHT22;6125;59.628;17.852;2023-10-13T15:13:02;10.70;99.90
12123;DHT22;6125;59.628;17.852;2023-10-13T15:15:30;10.70;99.90
12123;DHT22;6125;59.628;17.852;2023-10-13T15:17:58;10.70;99.90
12123;DHT22;6125;59.628;17.852;2023-10-13T15:20:42;10.60;99.90
12123;DHT22;6125;59.628;17.852;2023-10-13T15:23:14;10.60;99.90
12123;DHT22;6125;59.628;17.852;2023-10-13T15:25:49;10.60;99.90
12123;DHT22;6125;59.628;17.852;2023-10-13T15:28:17;10.50;99.90
12123;DHT22;6125;59.628;17.852;2023-10-13T15:30:50;10.50;99.90
12123;DHT22;6125;59.628;17.852;2023-10-13T15:33:30;10.50;99.90
12123;DHT22;6125;59.628;17.852;2023-10-13T15:35:57;10.40;99.90
12123;DHT22;6125;59.628;17.852;2023-10-13T15:38:25;10.40;99.90
12123;DHT22;6125;59.628;17.852;2023-10-13T15:40:57;10.40;99.90
12123;DHT22;6125;59.628;17.852;2023-10-13T15:43:24;10.40;99.90
12123;DHT22;6125;59.628;17.852;2023-10-13T15:45:56;10.40;99.90
12123;DHT22;6125;59.628;17.852;2023-10-13T15:48:36;10.30;99.90
12123;DHT22;6125;59.628;17.852;2023-10-13T15:51:04;10.30;99.90
12123;DHT22;6125;59.628;17.852;2023-10-13T15:53:45;10.30;99.90
12123;DHT22;6125;59.628;17.852;2023-10-13T15:56:13;10.30;99.90
12123;DHT22;6125;59.628;17.852;2023-10-13T15:58:42;10.30;99.90
12123;DHT22;6125;59.628;17.852;2023-10-13T16:01:13;10.20;99.90
12123;DHT22;6125;59.628;17.852;2023-10-13T16:03:40;10.20;99.90
12123;DHT22;6125;59.628;17.852;2023-10-13T16:06:09;10.10;99.90
12123;DHT22;6125;59.628;17.852;2023-10-13T16:08:37;10.10;99.90
12123;DHT22;6125;59.628;17.852;2023-10-13T16:11:05;10.00;99.90
12123;DHT22;6125;59.628;17.852;2023-10-13T16:13:34;10.00;99.90
12123;DHT22;6125;59.628;17.852;2023-10-13T16:16:04;9.80;99.90
12123;DHT22;6125;59.628;17.852;2023-10-13T16:18:38;9.70;99.90
12123;DHT22;6125;59.628;17.852;2023-10-13T16:21:13;9.70;99.90
12123;DHT22;6125;59.628;17.852;2023-10-13T16:23:40;9.60;99.90
12123;DHT22;6125;59.628;17.852;2023-10-13T16:26:09;9.50;99.90
12123;DHT22;6125;59.628;17.852;2023-10-13T16:28:37;9.40;99.90
12123;DHT22;6125;59.628;17.852;2023-10-13T16:31:05;9.30;99.90